Pays
Station

 

Conditions  météo  pour  Hill Air Force Base/Ogden  -  Etats-Unis    Etats-Unis

  
22 °C
    
 
 

METAR pour Hill Air Force Base/Ogden :

KHIF 200158Z AUTO 26005KT 10SM CLR 22/02 A3013 RMK AO2 SLP158 T02220023

 

Voici le bulletin pour Hill Air Force Base/Ogden - Etats-Unis.
 
Le bulletin a été fait il y a 5 minutes, à 01:58 UTC .
Le vent soufflait à la vitesse de 2.6 mètres par seconde de Ouest (260°).
 
La température était de 22 °C, avec un point de rosée à 2 °C.
La température ressentie était de 24 °C.
 
La pression atmosphérique était de 1020 hPa.
L'humidité relative était de 26.7%.
 
Le ciel était clair.
 
La visibilité globale était de 16.1 kilomètres.
 

 
 
 

Pays :   A   B   C   D   E   F   G   H   I   J   K   L   M   N   O   P   Q   R   S   T   U   V   W   Y   Z

 

Partenaires :  Info Météo avec Met'info
Météo Marine avec MeteoMarine.net
Infos Site  |  Infos Légales  |  Crédits  |  Confidentialité
Contactez-nous  |  Ajouter aux favoris
© 2013-2018 METAR - Tous droits réservés